الصفحة الرئيسية
METAR-TAF:

METAR-TAF

مطار :

داشوغوز, تركمانستان

دائرة عرض: 41-45-53N, خط طول: 059-49-59E, ارتفاع: 83 متر

مراقبة الطقس الحالي

تاريخ ووقت الإصدار 23 دقيقة قبل الساعة 13:00UTC
ريح 6 عقدة من الغرب
درجة الحرارة 23°درجة مئوية
الرطوبة 23%
ضغط 1018 hPa
الرؤية 10 كم أو أكثر
الغيوم لا تقل 1500 م ولا وجود لمزنة ركامية السحاب الأسود

METAR: UTAT 201300Z 26006KT CAVOK 23/01 Q1018 R26/CLRD70 NOSIG

زمن: 18:23 (13:23 UTC)

توقعات

تاريخ ووقت الإصدار 2ساعات و 51 دقيقة قبل الساعة 10:32UTC
التوقعات صالحة من20 الساعة 12 UTC إلى 21 الساعة 12 UTC
ريح 4 عقدةمن اتجاهات متغيرة تتزايد حتى 14 عقدة
الرؤية 10 كم أو أكثر
الغيوم لا تقل 1500 م ولا وجود لمزنة ركامية السحاب الأسود
مؤقت
من 20 الساعة 12 UTC إلى 20 الساعة 18 UTC
ريح 4 عقدةمن اتجاهات متغيرة
غيوم متفرقة على ارتفاع 3000 قدم
غيوم مفككة على ارتفاع 5000 قدم

TAF: UTAT 201032Z 2012/2112 VRB04G14KT CAVOK TEMPO 2012/2018 VRB04KT SCT030 BKN050

أرصاد الطقس والتوقعات من أكثر من 4000 مطار (تقارير الطقس للمطار METAR والتنبؤ بالطقس بالمطارTAF).

المحطات المتاحة هي النقط الصفراء والحمراء على الخريطة.

حرك المؤشر فوق النقطة لمعرفة اسم المحطة.

ثم انقر لمعرفة أرصاد وتوقعات الطقس.

لتغيير الخارطة: اضغط على الأزرار الخضراء مع رمز الصليب الأسود للتكبير. على الزر الأخضر مع شرطة للتصغير، أو على الأسهم الخضراء للخرائط المجاورة.


METAR-TAF: